createdAt,value
2018-05-03T00:00:17.700Z,92.70
2018-05-03T00:02:45.249Z,92.70
2018-05-03T00:05:13.584Z,93.30
2018-05-03T00:07:41.137Z,93.20
2018-05-03T00:10:08.684Z,93.30
2018-05-03T00:12:36.232Z,92.90
2018-05-03T00:15:03.776Z,92.50
2018-05-03T00:17:31.358Z,92.50
2018-05-03T00:19:58.937Z,93.00
2018-05-03T00:22:26.488Z,92.90
2018-05-03T00:24:54.036Z,93.00
2018-05-03T00:27:21.584Z,92.80
2018-05-03T00:29:49.164Z,92.70
2018-05-03T00:32:16.713Z,93.00
2018-05-03T00:34:44.265Z,93.40
2018-05-03T00:37:11.808Z,93.60
2018-05-03T00:39:39.360Z,93.10
2018-05-03T00:42:06.935Z,92.80
2018-05-03T00:44:34.480Z,92.00
2018-05-03T00:47:02.024Z,94.50
2018-05-03T00:49:29.573Z,93.80
2018-05-03T00:51:57.129Z,93.60
2018-05-03T00:54:37.156Z,93.10
2018-05-03T00:57:04.708Z,93.10
2018-05-03T00:59:32.275Z,92.50
2018-05-03T01:01:59.821Z,92.70
2018-05-03T01:04:27.400Z,92.00
2018-05-03T01:06:54.948Z,92.00
2018-05-03T01:09:22.491Z,92.10
2018-05-03T01:11:50.049Z,91.90
2018-05-03T01:14:17.596Z,92.40
2018-05-03T01:16:45.173Z,92.80
2018-05-03T01:19:12.719Z,92.50
2018-05-03T01:21:40.269Z,92.20
2018-05-03T01:24:07.818Z,92.40
2018-05-03T01:26:35.367Z,92.90
2018-05-03T01:29:02.944Z,93.40
2018-05-03T01:31:30.496Z,94.00
2018-05-03T01:33:58.044Z,94.00
2018-05-03T01:36:28.037Z,94.40
2018-05-03T01:38:55.585Z,93.90
2018-05-03T01:41:23.161Z,94.10
2018-05-03T01:43:50.707Z,94.30
2018-05-03T01:46:18.248Z,94.50
2018-05-03T01:48:45.804Z,93.80
2018-05-03T01:51:14.116Z,92.90
2018-05-03T01:53:41.695Z,92.90
2018-05-03T01:56:09.255Z,93.00
2018-05-03T01:58:36.804Z,92.90
2018-05-03T02:01:04.353Z,94.30
2018-05-03T02:03:31.952Z,93.30
2018-05-03T02:05:59.764Z,93.80
2018-05-03T02:08:27.314Z,92.50
2018-05-03T02:10:54.876Z,92.40
2018-05-03T02:13:22.439Z,93.20
2018-05-03T02:15:49.988Z,95.10
2018-05-03T02:18:17.565Z,94.40
2018-05-03T02:20:45.122Z,94.40
2018-05-03T02:23:12.668Z,94.60
2018-05-03T02:25:40.216Z,93.40
2018-05-03T02:28:07.760Z,93.60
2018-05-03T02:30:36.101Z,93.30
2018-05-03T02:33:03.660Z,93.30
2018-05-03T02:35:31.210Z,93.00
2018-05-03T02:37:58.770Z,92.50
2018-05-03T02:40:26.332Z,92.70
2018-05-03T02:42:53.908Z,92.60
2018-05-03T02:45:21.456Z,92.40
2018-05-03T02:47:49.021Z,92.30
2018-05-03T02:50:16.588Z,92.10
2018-05-03T02:52:44.144Z,92.30
2018-05-03T02:55:12.484Z,93.10
2018-05-03T02:57:57.520Z,93.10
2018-05-03T03:00:42.588Z,94.30
2018-05-03T03:03:27.588Z,95.10
2018-05-03T03:06:08.872Z,95.10
2018-05-03T03:12:23.151Z,96.60
2018-05-03T03:15:10.420Z,96.60
2018-05-03T03:17:55.513Z,97.00
2018-05-03T03:20:54.256Z,98.20
2018-05-03T03:23:39.344Z,98.30
2018-05-03T03:29:34.340Z,99.00
2018-05-03T03:32:15.584Z,98.70
2018-05-03T03:34:43.128Z,98.80
2018-05-03T03:37:32.217Z,98.70
2018-05-03T03:40:25.057Z,98.80
2018-05-03T03:43:13.368Z,98.70
2018-05-03T03:45:40.916Z,98.50
2018-05-03T03:48:09.232Z,98.40
2018-05-03T03:50:36.811Z,98.40
2018-05-03T03:53:04.364Z,98.50
2018-05-03T03:55:31.916Z,98.50
2018-05-03T03:57:59.464Z,98.50
2018-05-03T04:00:27.015Z,98.50
2018-05-03T04:02:54.588Z,98.50
2018-05-03T04:05:22.140Z,98.40
2018-05-03T04:07:49.696Z,98.40
2018-05-03T04:10:17.244Z,98.40
2018-05-03T04:12:44.796Z,98.40
2018-05-03T04:15:12.360Z,98.40
2018-05-03T04:17:51.750Z,98.40
2018-05-03T04:20:39.712Z,98.30
2018-05-03T04:23:26.835Z,98.10
2018-05-03T04:26:02.178Z,98.10
2018-05-03T04:28:29.736Z,97.90
2018-05-03T04:30:57.312Z,97.80
2018-05-03T04:33:25.628Z,97.70
2018-05-03T04:35:53.176Z,97.70
2018-05-03T04:38:20.728Z,97.50
2018-05-03T04:40:48.285Z,97.20
2018-05-03T04:43:15.832Z,97.10
2018-05-03T04:45:43.385Z,96.90
2018-05-03T04:48:11.779Z,96.30
2018-05-03T04:50:39.331Z,96.10
2018-05-03T04:53:06.895Z,95.90
2018-05-03T04:55:34.440Z,95.30
2018-05-03T04:58:01.988Z,95.30
2018-05-03T05:00:29.542Z,94.70
2018-05-03T05:02:57.862Z,93.90
2018-05-03T05:05:25.441Z,93.80
2018-05-03T05:07:53.041Z,94.00
2018-05-03T05:10:20.577Z,93.50
2018-05-03T05:12:48.131Z,92.80
2018-05-03T05:15:15.685Z,92.80
2018-05-03T05:17:43.291Z,92.50
2018-05-03T05:20:10.840Z,92.50
2018-05-03T05:22:38.395Z,92.10
2018-05-03T05:25:05.959Z,92.30
2018-05-03T05:27:33.521Z,92.00
2018-05-03T05:30:01.089Z,91.80
2018-05-03T05:32:28.645Z,91.80
2018-05-03T05:34:56.211Z,91.90
2018-05-03T05:37:24.528Z,91.80
2018-05-03T05:39:52.091Z,91.80
2018-05-03T05:42:19.656Z,91.50
2018-05-03T05:44:47.208Z,90.90
2018-05-03T05:47:14.762Z,90.70
2018-05-03T05:49:42.434Z,90.40
2018-05-03T05:52:09.988Z,89.90
2018-05-03T05:54:37.564Z,88.90
2018-05-03T05:57:05.120Z,89.00
2018-05-03T05:59:32.757Z,88.10
2018-05-03T06:02:00.312Z,85.20
2018-05-03T06:04:27.860Z,83.10
2018-05-03T06:06:55.436Z,81.30
2018-05-03T06:09:22.976Z,81.20
2018-05-03T06:11:50.528Z,79.10
2018-05-03T06:14:18.076Z,77.70
2018-05-03T06:16:46.528Z,75.10
2018-05-03T06:19:14.087Z,73.60
2018-05-03T06:21:42.412Z,72.90
2018-05-03T06:24:09.987Z,72.80
2018-05-03T06:26:37.552Z,72.60
2018-05-03T06:29:05.112Z,70.20
2018-05-03T06:31:32.660Z,69.10
2018-05-03T06:34:00.211Z,67.80
2018-05-03T06:36:27.780Z,66.00
2018-05-03T06:38:55.381Z,65.60
2018-05-03T06:41:22.925Z,65.30
2018-05-03T06:43:50.492Z,63.90
2018-05-03T06:46:18.809Z,64.50
2018-05-03T06:48:46.388Z,64.50
2018-05-03T06:51:13.935Z,63.10
2018-05-03T06:53:41.483Z,63.50
2018-05-03T06:56:09.038Z,64.30
2018-05-03T06:58:36.605Z,66.00
2018-05-03T07:01:04.203Z,65.60
2018-05-03T07:03:31.784Z,67.10
2018-05-03T07:05:59.343Z,65.30
2018-05-03T07:08:26.908Z,64.40
2018-05-03T07:10:54.456Z,65.00
2018-05-03T07:13:22.028Z,66.00
2018-05-03T07:15:49.580Z,64.50
2018-05-03T07:18:17.132Z,64.60
2018-05-03T07:20:44.699Z,64.20
2018-05-03T07:23:12.248Z,64.70
2018-05-03T07:25:40.588Z,60.20
2018-05-03T07:28:08.139Z,60.20
2018-05-03T07:30:35.688Z,62.30
2018-05-03T07:33:03.244Z,61.70
2018-05-03T07:35:30.843Z,59.70
2018-05-03T07:37:58.387Z,62.60
2018-05-03T07:40:25.945Z,62.10
2018-05-03T07:42:54.274Z,64.10
2018-05-03T07:45:22.024Z,64.00
2018-05-03T07:47:49.572Z,64.00
2018-05-03T07:50:17.158Z,63.60
2018-05-03T07:52:44.718Z,63.30
2018-05-03T07:55:12.282Z,63.00
2018-05-03T07:57:39.834Z,62.30
2018-05-03T08:00:07.386Z,62.60
2018-05-03T08:02:34.967Z,62.20
2018-05-03T08:05:02.535Z,60.80
2018-05-03T08:07:30.086Z,62.30
2018-05-03T08:09:57.638Z,61.40
2018-05-03T08:12:25.188Z,61.10
2018-05-03T08:14:52.776Z,58.40
2018-05-03T08:17:20.329Z,58.90
2018-05-03T08:19:47.896Z,56.10
2018-05-03T08:22:15.490Z,55.70
2018-05-03T08:24:43.787Z,55.00
2018-05-03T08:27:11.364Z,55.00
2018-05-03T08:29:38.916Z,55.50
2018-05-03T08:32:06.476Z,55.00
2018-05-03T08:34:34.024Z,55.60
2018-05-03T08:37:01.589Z,55.60
2018-05-03T08:39:29.168Z,54.60
2018-05-03T08:41:56.734Z,51.70
2018-05-03T08:44:24.291Z,50.70
2018-05-03T08:46:51.840Z,51.60
2018-05-03T08:49:19.388Z,51.60
2018-05-03T08:51:46.968Z,51.90
2018-05-03T08:54:14.524Z,52.80
2018-05-03T08:56:42.076Z,54.10
2018-05-03T08:59:09.624Z,53.00
2018-05-03T09:01:37.270Z,54.20
2018-05-03T09:04:04.784Z,55.00
2018-05-03T09:06:32.341Z,54.40
2018-05-03T09:08:59.896Z,54.60
2018-05-03T09:11:28.223Z,55.00
2018-05-03T09:13:55.773Z,55.00
2018-05-03T09:16:23.353Z,55.50
2018-05-03T09:18:50.902Z,57.20
2018-05-03T09:21:18.456Z,58.30
2018-05-03T09:23:46.009Z,59.80
2018-05-03T09:26:14.333Z,63.50
2018-05-03T09:28:41.909Z,63.60
2018-05-03T09:31:09.461Z,65.90
2018-05-03T09:33:37.015Z,67.60
2018-05-03T09:36:05.327Z,67.90
2018-05-03T09:38:32.880Z,67.90
2018-05-03T09:41:00.455Z,68.70
2018-05-03T09:43:28.005Z,71.30
2018-05-03T09:45:55.552Z,71.10
2018-05-03T09:48:23.102Z,71.20
2018-05-03T09:50:50.757Z,72.10
2018-05-03T09:53:18.328Z,72.70
2018-05-03T09:55:45.872Z,73.70
2018-05-03T09:58:13.417Z,73.80
2018-05-03T10:00:40.965Z,71.70
2018-05-03T10:03:08.512Z,72.20
2018-05-03T10:05:36.852Z,73.30
2018-05-03T10:08:04.399Z,73.20
2018-05-03T10:10:31.952Z,74.60
2018-05-03T10:12:59.497Z,74.60
2018-05-03T10:15:27.049Z,75.30
2018-05-03T10:17:54.617Z,76.60
2018-05-03T10:20:22.172Z,76.40
2018-05-03T10:22:49.719Z,76.20
2018-05-03T10:25:17.273Z,77.90
2018-05-03T10:27:44.819Z,78.30
2018-05-03T10:30:12.406Z,78.30
2018-05-03T10:32:39.956Z,78.20
2018-05-03T10:35:07.500Z,77.90
2018-05-03T10:37:35.053Z,78.70
2018-05-03T10:40:03.368Z,78.10
2018-05-03T10:42:30.932Z,78.00
2018-05-03T10:44:58.476Z,79.10
2018-05-03T10:47:26.020Z,79.80
2018-05-03T10:49:53.568Z,79.20
2018-05-03T10:52:21.117Z,80.40
2018-05-03T10:54:48.689Z,80.10
2018-05-03T10:57:16.235Z,80.00
2018-05-03T10:59:43.823Z,80.80
2018-05-03T11:02:11.367Z,81.50
2018-05-03T11:04:38.918Z,80.90
2018-05-03T11:07:06.492Z,81.00
2018-05-03T11:09:34.056Z,81.60
2018-05-03T11:12:01.601Z,81.50
2018-05-03T11:14:29.155Z,81.20
2018-05-03T11:16:56.707Z,81.60
2018-05-03T11:19:24.252Z,81.40
2018-05-03T11:21:52.592Z,81.40
2018-05-03T11:24:20.141Z,81.40
2018-05-03T11:26:47.691Z,81.80
2018-05-03T11:29:15.252Z,81.70
2018-05-03T11:31:42.800Z,81.70
2018-05-03T11:34:10.350Z,81.50
2018-05-03T11:36:37.954Z,80.10
2018-05-03T11:39:05.491Z,79.60
2018-05-03T11:41:33.080Z,80.50
2018-05-03T11:44:00.628Z,80.70
2018-05-03T11:46:28.175Z,81.30
2018-05-03T11:48:55.728Z,82.20
2018-05-03T11:51:23.278Z,81.70
2018-05-03T11:53:50.820Z,82.10
2018-05-03T11:56:18.375Z,81.30
2018-05-03T11:58:45.930Z,80.90
2018-05-03T12:01:13.488Z,81.10
2018-05-03T12:03:41.060Z,80.70
2018-05-03T12:06:09.384Z,80.10
2018-05-03T12:08:37.706Z,80.20
2018-05-03T12:11:11.361Z,80.20
2018-05-03T12:13:38.919Z,81.10
2018-05-03T12:16:06.494Z,82.30
2018-05-03T12:18:34.040Z,82.90
2018-05-03T12:21:01.589Z,84.20
2018-05-03T12:23:29.140Z,84.80
2018-05-03T12:25:57.452Z,87.00
2018-05-03T12:28:25.072Z,87.00
2018-05-03T12:30:52.616Z,86.50
2018-05-03T12:33:20.171Z,88.60
2018-05-03T12:35:47.716Z,87.70
2018-05-03T12:38:15.256Z,90.00
2018-05-03T12:40:42.837Z,89.90
2018-05-03T12:43:10.389Z,88.00
2018-05-03T12:45:37.936Z,87.50
2018-05-03T12:48:05.483Z,88.00
2018-05-03T12:50:33.038Z,88.50
2018-05-03T12:53:00.617Z,90.10
2018-05-03T12:55:28.164Z,89.80
2018-05-03T12:57:55.710Z,90.10
2018-05-03T13:00:23.256Z,89.80
2018-05-03T13:02:50.800Z,90.90
2018-05-03T13:05:18.368Z,91.40
2018-05-03T13:07:45.923Z,91.60
2018-05-03T13:10:13.506Z,91.30
2018-05-03T13:12:41.064Z,90.70
2018-05-03T13:15:08.618Z,91.40
2018-05-03T13:17:36.192Z,91.30
2018-05-03T13:20:03.762Z,92.30
2018-05-03T13:22:31.320Z,91.90
2018-05-03T13:24:58.864Z,92.20
2018-05-03T13:27:26.408Z,92.30
2018-05-03T13:29:53.984Z,92.70
2018-05-03T13:32:21.540Z,92.80
2018-05-03T13:34:49.084Z,92.60
2018-05-03T13:37:16.627Z,92.30
2018-05-03T13:39:44.178Z,93.10
2018-05-03T13:42:11.756Z,93.30
2018-05-03T13:44:39.302Z,93.20
2018-05-03T13:47:06.848Z,93.20
2018-05-03T13:49:34.395Z,93.10
2018-05-03T13:52:02.705Z,94.10
2018-05-03T13:54:30.276Z,94.10
2018-05-03T13:56:57.824Z,93.80
2018-05-03T13:59:25.378Z,93.90
2018-05-03T14:01:52.935Z,94.40
2018-05-03T14:04:20.485Z,94.00
2018-05-03T14:06:48.061Z,94.10
2018-05-03T14:09:15.608Z,94.40
2018-05-03T14:11:43.155Z,94.10
2018-05-03T14:14:10.700Z,94.40
2018-05-03T14:16:38.245Z,94.50
2018-05-03T14:19:06.583Z,94.70
2018-05-03T14:21:34.140Z,94.70
2018-05-03T14:24:01.689Z,94.80
2018-05-03T14:26:29.363Z,95.00
2018-05-03T14:28:56.919Z,94.80
2018-05-03T14:31:24.488Z,95.10
2018-05-03T14:33:52.034Z,95.00
2018-05-03T14:36:19.588Z,95.10
2018-05-03T14:38:47.144Z,95.20
2018-05-03T14:41:14.688Z,95.00
2018-05-03T14:43:42.260Z,95.10
2018-05-03T14:46:09.804Z,95.40
2018-05-03T14:48:37.361Z,95.20
2018-05-03T14:51:04.912Z,95.30
2018-05-03T14:53:32.465Z,95.00
2018-05-03T14:56:00.036Z,95.60
2018-05-03T14:58:27.585Z,95.40
2018-05-03T15:00:55.185Z,95.90
2018-05-03T15:03:22.715Z,95.80
2018-05-03T15:05:50.261Z,95.50
2018-05-03T15:08:17.840Z,95.70
2018-05-03T15:10:45.396Z,95.70
2018-05-03T15:13:12.940Z,95.50
2018-05-03T15:15:40.489Z,95.60
2018-05-03T15:18:08.071Z,95.90
2018-05-03T15:20:35.639Z,96.10
2018-05-03T15:23:03.190Z,95.90
2018-05-03T15:25:30.740Z,95.80
2018-05-03T15:27:58.284Z,95.90
2018-05-03T15:30:25.844Z,95.90
2018-05-03T15:32:53.420Z,95.90
2018-05-03T15:35:20.964Z,95.80
2018-05-03T15:37:48.544Z,96.10
2018-05-03T15:40:16.088Z,96.30
2018-05-03T15:45:16.344Z,96.60
2018-05-03T15:47:43.908Z,96.30
2018-05-03T15:52:41.143Z,96.30
2018-05-03T15:55:08.687Z,96.50
2018-05-03T15:57:36.261Z,96.40
2018-05-03T16:00:03.808Z,96.60
2018-05-03T16:02:31.364Z,96.60
2018-05-03T16:04:58.917Z,96.40
2018-05-03T16:07:26.468Z,96.30
2018-05-03T16:09:54.043Z,96.50
2018-05-03T16:12:21.594Z,96.40
2018-05-03T16:14:49.141Z,96.50
2018-05-03T16:17:16.688Z,96.50
2018-05-03T16:19:44.237Z,96.50
2018-05-03T16:22:11.810Z,96.90
2018-05-03T16:24:39.356Z,97.00
2018-05-03T16:27:06.958Z,97.00
2018-05-03T16:29:34.482Z,97.00
2018-05-03T16:32:02.049Z,97.20
2018-05-03T16:34:29.646Z,97.10
2018-05-03T16:36:57.172Z,97.50
2018-05-03T16:39:24.719Z,97.30
2018-05-03T16:41:52.264Z,97.30
2018-05-03T16:44:19.844Z,97.50
2018-05-03T16:46:47.422Z,97.50
2018-05-03T16:49:14.961Z,97.50
2018-05-03T16:51:42.504Z,97.60
2018-05-03T16:54:10.844Z,97.60
2018-05-03T16:56:38.420Z,97.90
2018-05-03T16:59:06.000Z,97.70
2018-05-03T17:01:33.569Z,97.80
2018-05-03T17:04:01.165Z,97.80
2018-05-03T17:06:28.760Z,97.90
2018-05-03T17:08:56.352Z,98.20
2018-05-03T17:11:23.935Z,98.30
2018-05-03T17:13:51.497Z,98.40
2018-05-03T17:16:19.061Z,98.40
2018-05-03T17:18:46.621Z,98.70
2018-05-03T17:21:14.226Z,98.40
2018-05-03T17:23:41.792Z,98.40
2018-05-03T17:26:09.383Z,98.50
2018-05-03T17:28:36.974Z,98.40
2018-05-03T17:31:04.549Z,98.50
2018-05-03T17:33:32.150Z,98.50
2018-05-03T17:35:59.733Z,98.70
2018-05-03T17:38:27.303Z,98.80
2018-05-03T17:40:54.872Z,98.70
2018-05-03T17:43:22.456Z,98.80
2018-05-03T17:45:50.072Z,98.60
2018-05-03T17:48:17.640Z,98.70
2018-05-03T17:50:45.212Z,98.70
2018-05-03T17:53:12.786Z,98.70
2018-05-03T17:55:40.352Z,98.60
2018-05-03T17:58:07.953Z,98.80
2018-05-03T18:00:35.541Z,98.80
2018-05-03T18:03:03.119Z,98.90
2018-05-03T18:05:30.716Z,98.90
2018-05-03T18:07:59.236Z,98.90
2018-05-03T18:10:26.818Z,99.10
2018-05-03T18:12:54.381Z,99.30
2018-05-03T18:15:21.945Z,99.50
2018-05-03T18:17:49.496Z,99.50
2018-05-03T18:20:17.053Z,99.50
2018-05-03T18:22:44.634Z,99.60
2018-05-03T18:25:12.197Z,99.70
2018-05-03T18:27:39.773Z,99.70
2018-05-03T18:30:07.333Z,99.70
2018-05-03T18:32:35.494Z,99.60
2018-05-03T18:35:03.296Z,99.60
2018-05-03T18:37:30.860Z,99.60
2018-05-03T18:39:58.418Z,99.50
2018-05-03T18:42:25.970Z,99.50
2018-05-03T18:44:53.528Z,99.60
2018-05-03T18:47:21.111Z,99.30
2018-05-03T18:49:48.751Z,99.60
2018-05-03T18:52:16.260Z,99.70
2018-05-03T18:54:43.823Z,99.60
2018-05-03T18:57:11.397Z,99.40
2018-05-03T18:59:38.989Z,99.40
2018-05-03T19:02:06.545Z,99.60
2018-05-03T19:04:34.867Z,99.70
2018-05-03T19:07:02.435Z,99.70
2018-05-03T19:09:29.992Z,99.50
2018-05-03T19:11:57.637Z,99.50
2018-05-03T19:14:25.258Z,99.20
2018-05-03T19:16:52.761Z,99.20
2018-05-03T19:19:20.325Z,99.10
2018-05-03T19:21:47.882Z,99.30
2018-05-03T19:24:15.477Z,99.50
2018-05-03T19:26:43.688Z,99.40
2018-05-03T19:29:11.245Z,99.40
2018-05-03T19:31:38.797Z,99.20
2018-05-03T19:34:06.353Z,98.70
2018-05-03T19:36:33.949Z,99.00
2018-05-03T19:39:01.518Z,98.90
2018-05-03T19:41:29.076Z,99.00
2018-05-03T19:43:57.742Z,98.90
2018-05-03T19:46:25.362Z,98.90
2018-05-03T19:48:52.954Z,99.00
2018-05-03T19:51:20.529Z,98.90
2018-05-03T19:53:48.105Z,98.90
2018-05-03T19:56:15.704Z,98.90
2018-05-03T19:58:43.286Z,99.00
2018-05-03T20:01:10.881Z,98.90
2018-05-03T20:03:39.267Z,98.70
2018-05-03T20:06:06.809Z,98.70
2018-05-03T20:08:34.401Z,98.70
2018-05-03T20:11:01.970Z,98.60
2018-05-03T20:13:29.600Z,98.80
2018-05-03T20:15:57.173Z,98.30
2018-05-03T20:18:24.778Z,97.90
2018-05-03T20:20:52.381Z,97.80
2018-05-03T20:23:19.966Z,97.80
2018-05-03T20:25:47.553Z,97.80
2018-05-03T20:28:15.578Z,97.80
2018-05-03T20:30:44.018Z,98.20
2018-05-03T20:33:11.589Z,97.90
2018-05-03T20:35:39.167Z,98.10
2018-05-03T20:38:06.773Z,98.10
2018-05-03T20:40:34.364Z,98.10
2018-05-03T20:43:01.931Z,98.10
2018-05-03T20:45:30.289Z,98.30
2018-05-03T20:47:57.873Z,98.30
2018-05-03T20:50:25.469Z,98.20
2018-05-03T20:52:53.812Z,98.50
2018-05-03T20:55:21.417Z,98.50
2018-05-03T20:57:49.093Z,98.60
2018-05-03T21:00:16.597Z,98.70
2018-05-03T21:02:44.190Z,98.80
2018-05-03T21:05:11.772Z,98.80
2018-05-03T21:07:39.372Z,98.70
2018-05-03T21:10:06.946Z,98.70
2018-05-03T21:12:34.584Z,98.70
2018-05-03T21:15:02.150Z,98.70
2018-05-03T21:17:29.766Z,98.70
2018-05-03T21:19:57.355Z,98.70
2018-05-03T21:22:24.948Z,98.80
2018-05-03T21:24:52.544Z,98.80
2018-05-03T21:27:20.141Z,98.90
2018-05-03T21:29:47.744Z,99.10
2018-05-03T21:32:15.364Z,99.20
2018-05-03T21:34:42.977Z,99.20
2018-05-03T21:37:11.312Z,99.20
2018-05-03T21:39:38.901Z,99.20
2018-05-03T21:42:07.253Z,99.20
2018-05-03T21:44:34.872Z,99.20
2018-05-03T21:47:02.475Z,99.20
2018-05-03T21:49:30.114Z,99.20
2018-05-03T21:51:58.031Z,98.90
2018-05-03T21:54:25.635Z,99.20
2018-05-03T21:56:53.257Z,99.10
2018-05-03T21:59:20.865Z,99.10
2018-05-03T22:01:48.695Z,98.90
2018-05-03T22:04:16.326Z,98.80
2018-05-03T22:06:44.721Z,98.70
2018-05-03T22:09:12.300Z,99.00
2018-05-03T22:11:39.889Z,98.70
2018-05-03T22:14:08.073Z,98.60
2018-05-03T22:16:35.708Z,98.60
2018-05-03T22:19:03.313Z,98.30
2018-05-03T22:21:30.928Z,98.40
2018-05-03T22:23:58.532Z,98.60
2018-05-03T22:26:26.128Z,98.60
2018-05-03T22:28:53.736Z,98.70
2018-05-03T22:31:21.334Z,98.70
2018-05-03T22:33:48.919Z,98.60
2018-05-03T22:36:16.753Z,98.50
2018-05-03T22:38:44.808Z,98.70
2018-05-03T22:41:12.417Z,98.60
2018-05-03T22:43:41.517Z,98.50
2018-05-03T22:46:09.137Z,98.60
2018-05-03T22:48:37.526Z,98.50
2018-05-03T22:51:05.110Z,98.40
2018-05-03T22:53:32.691Z,98.40
2018-05-03T22:56:00.268Z,98.50
2018-05-03T22:58:27.870Z,98.60
2018-05-03T23:00:55.461Z,98.40
2018-05-03T23:03:23.037Z,98.50
2018-05-03T23:05:50.659Z,98.60
2018-05-03T23:08:18.277Z,98.60
2018-05-03T23:10:45.906Z,98.40
2018-05-03T23:13:13.481Z,98.40
2018-05-03T23:15:41.131Z,98.30
2018-05-03T23:18:08.732Z,98.20
2018-05-03T23:20:36.312Z,98.30
2018-05-03T23:23:04.643Z,98.00
2018-05-03T23:25:32.216Z,98.00
2018-05-03T23:27:59.868Z,98.10
2018-05-03T23:30:27.493Z,98.30
2018-05-03T23:32:55.113Z,98.40
2018-05-03T23:35:23.513Z,98.60
2018-05-03T23:37:51.099Z,98.60
2018-05-03T23:40:18.688Z,98.60
2018-05-03T23:42:46.284Z,98.50
2018-05-03T23:45:14.620Z,98.30
2018-05-03T23:47:42.185Z,98.30
2018-05-03T23:50:09.757Z,98.30
2018-05-03T23:52:37.346Z,98.50
2018-05-03T23:55:04.937Z,98.40
2018-05-03T23:57:32.515Z,98.30
